Startpagina
METAR-TAF:

METAR-TAF

Vliegvelden :

Mission Field

Livingston, Montana, Verenigde Staten

breedte: 45-41-58N, lengte: 110-26-54W, hoogte: 1419 m

Actueel weer

Dit bericht is 59 minuten geleden gemaakt, om 22:53 UTC
Wind 10 kt uit het oostzuidoosten
Temperatuur 7°C
Vochtigheid 57%
Druk 1016 hPa
Zicht: 16.1 km
Onbewolkt

METAR: KLVM 212253Z AUTO 11010KT 10SM CLR 07/M01 A3001 RMK AO2 SLP191 T00671006

Tijdstip: 17:52 (23:52 UTC)

Verwachting

Dit bericht is 32 minuten geleden gemaakt, om 23:20 UTC
Verwachting geldig van 22 om 00 UTC tot 22 om 24 UTC
Wind 8 kt uit het oostzuidoosten
Zicht: 10 km
Verspreide wolken op 18000 ft
Van 22 om 0900 UTC
Wind 6 kt uit het noordnoordwesten
Zicht: 10 km
Verspreide wolken op 17000 ft

TAF: KLVM 212320Z 2200/2224 11008KT P6SM SCT180 FM220900 33006KT P6SM SCT170

Waarnemingen en weersverwachtingen van meer dan 4000 vliegvelden (METAR en TAF).

De beschikbare stations zijn de gele en rode punten op de kaart.

Ga met uw muis naar het station om de naam te zien.

Klik dan om waarnemingen en weersverwachtingen te zien.

kaart wijzigen: klik op de groene knoppen met een zwart kruis om in te zoomen, op de groene knop met een streepje om uit te zoomen of op de groene pijlen voor aangrenzende kaarten.


METAR-TAF: